Terminal Aerodrome Forecast
Issued by NWS Knoxville/Tri Cities, TN

Home | Current Version | Previous Version | Text Only | Print | Product List | Glossary On
Versions: 1 2 3 4 5 6 7 8 9 10 11 12 13 14 15 16 17 18 19 20 21 22 23 24 25 26 27 28 29 30 31 32 33 34 35 36 37 38 39 40 41 42
000
FTUS44 KMRX 240523
TAFTRI
TAF
KTRI 240523Z 2406/2506 00000KT P6SM SKC
     FM240800 00000KT 4SM BR SKC
      TEMPO 2409/2413 1SM BR
     FM241400 25004KT P6SM SKC
     FM250000 00000KT P6SM SKC=

USA.gov is the U.S. government's official web portal to all federal, state and local government web resources and services.